createdAt,value
2018-10-16T00:00:29.263Z,26.50
2018-10-16T00:01:08.551Z,26.50
2018-10-16T00:01:46.844Z,26.50
2018-10-16T00:02:24.876Z,26.50
2018-10-16T00:03:03.514Z,26.50
2018-10-16T00:03:41.738Z,26.50
2018-10-16T00:04:20.924Z,26.50
2018-10-16T00:04:59.345Z,26.50
2018-10-16T00:05:38.628Z,26.50
2018-10-16T00:06:19.272Z,26.50
2018-10-16T00:06:57.592Z,26.50
2018-10-16T00:07:36.140Z,26.50
2018-10-16T00:08:15.896Z,26.60
2018-10-16T00:08:54.410Z,26.60
2018-10-16T00:09:32.510Z,26.60
2018-10-16T00:10:11.622Z,26.60
2018-10-16T00:10:50.988Z,26.60
2018-10-16T00:11:29.355Z,26.60
2018-10-16T00:12:08.932Z,26.60
2018-10-16T00:12:47.342Z,26.60
2018-10-16T00:13:25.706Z,26.60
2018-10-16T00:14:04.100Z,26.60
2018-10-16T00:14:42.502Z,26.50
2018-10-16T00:15:21.735Z,26.50
2018-10-16T00:16:00.144Z,26.50
2018-10-16T00:16:38.363Z,26.50
2018-10-16T00:17:16.643Z,26.50
2018-10-16T00:17:55.197Z,26.60
2018-10-16T00:18:34.442Z,26.60
2018-10-16T00:19:12.933Z,26.60
2018-10-16T00:19:51.333Z,26.60
2018-10-16T00:20:29.624Z,26.60
2018-10-16T00:21:08.135Z,26.60
2018-10-16T00:21:46.507Z,26.60
2018-10-16T00:22:24.995Z,26.60
2018-10-16T00:23:04.056Z,26.60
2018-10-16T00:23:42.310Z,26.60
2018-10-16T00:24:20.642Z,26.60
2018-10-16T00:24:58.847Z,26.70
2018-10-16T00:25:39.431Z,26.70
2018-10-16T00:26:17.409Z,26.70
2018-10-16T00:26:55.849Z,26.60
2018-10-16T00:27:34.345Z,26.70
2018-10-16T00:28:13.640Z,26.70
2018-10-16T00:28:51.909Z,26.70
2018-10-16T00:29:30.497Z,26.70
2018-10-16T00:30:09.235Z,26.70
2018-10-16T00:30:48.351Z,26.70
2018-10-16T00:31:27.248Z,26.70
2018-10-16T00:32:05.542Z,26.70
2018-10-16T00:32:45.042Z,26.70
2018-10-16T00:33:23.271Z,26.70
2018-10-16T00:34:03.293Z,26.70
2018-10-16T00:34:42.521Z,26.70
2018-10-16T00:35:21.188Z,26.70
2018-10-16T00:35:59.696Z,26.70
2018-10-16T00:36:39.367Z,26.70
2018-10-16T00:37:18.856Z,26.70
2018-10-16T00:37:58.385Z,26.70
2018-10-16T00:38:36.474Z,26.70
2018-10-16T00:39:16.832Z,26.70
2018-10-16T00:39:55.278Z,26.70
2018-10-16T00:40:33.671Z,26.70
2018-10-16T00:41:11.936Z,26.70
2018-10-16T00:41:54.574Z,26.70
2018-10-16T00:42:34.094Z,26.70
2018-10-16T00:43:12.556Z,26.70
2018-10-16T00:43:51.280Z,26.70
2018-10-16T00:44:29.457Z,26.70
2018-10-16T00:45:11.080Z,26.70
2018-10-16T00:45:49.864Z,26.70
2018-10-16T00:46:28.368Z,26.70
2018-10-16T00:47:07.883Z,26.70
2018-10-16T00:47:46.284Z,26.70
2018-10-16T00:48:24.755Z,26.70
2018-10-16T00:49:03.408Z,26.70
2018-10-16T00:49:41.721Z,26.70
2018-10-16T00:50:19.735Z,26.70
2018-10-16T00:50:57.914Z,26.70
2018-10-16T00:51:37.589Z,26.60
2018-10-16T00:52:15.583Z,26.60
2018-10-16T00:52:55.083Z,26.60
2018-10-16T00:53:33.788Z,26.60
2018-10-16T00:54:12.204Z,26.60
2018-10-16T00:54:51.740Z,26.60
2018-10-16T00:55:29.990Z,26.60
2018-10-16T00:56:09.874Z,26.60
2018-10-16T00:56:48.333Z,26.60
2018-10-16T00:57:26.737Z,26.60
2018-10-16T00:58:06.161Z,26.60
2018-10-16T00:58:44.169Z,26.60
2018-10-16T00:59:23.100Z,26.60
2018-10-16T01:00:01.575Z,26.60
2018-10-16T01:00:40.048Z,26.60
2018-10-16T01:01:22.771Z,26.60
2018-10-16T01:02:01.809Z,26.60
2018-10-16T01:02:39.949Z,26.60
2018-10-16T01:03:18.268Z,26.70
2018-10-16T01:03:57.630Z,26.60
2018-10-16T01:04:36.793Z,26.70
2018-10-16T01:05:16.633Z,26.70
2018-10-16T01:05:54.855Z,26.70
2018-10-16T01:06:34.316Z,26.70
2018-10-16T01:07:12.482Z,26.70
2018-10-16T01:07:50.833Z,26.70
2018-10-16T01:08:29.269Z,26.70
2018-10-16T01:09:14.497Z,26.70
2018-10-16T01:09:52.999Z,26.70
2018-10-16T01:10:31.423Z,26.70
2018-10-16T01:11:12.644Z,26.70
2018-10-16T01:11:50.748Z,26.70
2018-10-16T01:12:28.895Z,26.70
2018-10-16T01:13:07.238Z,26.70
2018-10-16T01:13:45.589Z,26.70
2018-10-16T01:14:23.968Z,26.70
2018-10-16T01:15:03.135Z,26.70
2018-10-16T01:15:41.589Z,26.70
2018-10-16T01:16:20.050Z,26.70
2018-10-16T01:16:59.817Z,26.70
2018-10-16T01:17:37.952Z,26.80
2018-10-16T01:18:15.893Z,26.80
2018-10-16T01:18:54.339Z,26.80
2018-10-16T01:19:32.776Z,26.80
2018-10-16T01:20:14.713Z,26.80
2018-10-16T01:20:52.626Z,26.80
2018-10-16T01:21:30.850Z,26.80
2018-10-16T01:22:09.871Z,26.80
2018-10-16T01:22:47.792Z,26.80
2018-10-16T01:23:27.805Z,26.80
2018-10-16T01:24:08.098Z,26.80
2018-10-16T01:24:46.008Z,26.80
2018-10-16T01:25:24.150Z,26.80
2018-10-16T01:26:03.578Z,26.80
2018-10-16T01:26:42.285Z,26.90
2018-10-16T01:27:20.662Z,26.90
2018-10-16T01:27:58.769Z,26.80
2018-10-16T01:28:36.696Z,26.80
2018-10-16T01:29:15.784Z,26.90
2018-10-16T01:29:55.256Z,26.90
2018-10-16T01:30:34.814Z,26.80
2018-10-16T01:31:13.797Z,26.90
2018-10-16T01:31:53.940Z,26.90
2018-10-16T01:32:31.863Z,26.90
2018-10-16T01:33:10.558Z,26.90
2018-10-16T01:33:49.978Z,26.90
2018-10-16T01:34:29.038Z,26.90
2018-10-16T01:35:07.252Z,26.90
2018-10-16T01:35:45.732Z,26.90
2018-10-16T01:36:24.099Z,26.90
2018-10-16T01:37:02.077Z,26.90
2018-10-16T01:37:41.159Z,26.80
2018-10-16T01:38:19.421Z,26.80
2018-10-16T01:38:58.809Z,26.80
2018-10-16T01:39:36.944Z,26.80
2018-10-16T01:40:15.947Z,26.80
2018-10-16T01:40:53.780Z,26.80
2018-10-16T01:41:32.948Z,26.80
2018-10-16T01:42:12.649Z,26.80
2018-10-16T01:42:50.820Z,26.80
2018-10-16T01:43:29.334Z,26.80
2018-10-16T01:44:07.697Z,26.80
2018-10-16T01:44:46.764Z,26.80
2018-10-16T01:45:25.286Z,26.80
2018-10-16T01:46:04.256Z,26.80
2018-10-16T01:46:43.669Z,26.80
2018-10-16T01:47:21.819Z,26.80
2018-10-16T01:48:00.283Z,26.80
2018-10-16T01:48:38.880Z,26.80
2018-10-16T01:49:18.235Z,26.90
2018-10-16T01:49:56.308Z,26.90
2018-10-16T01:50:34.348Z,26.90
2018-10-16T01:51:12.829Z,26.90
2018-10-16T01:51:51.374Z,26.90
2018-10-16T01:52:30.066Z,26.80
2018-10-16T01:53:09.909Z,26.80
2018-10-16T01:53:48.280Z,26.80
2018-10-16T01:54:26.488Z,26.80
2018-10-16T01:55:05.647Z,26.80
2018-10-16T01:55:44.233Z,26.80
2018-10-16T01:56:22.368Z,26.80
2018-10-16T01:57:00.505Z,26.80
2018-10-16T01:57:38.891Z,26.80
2018-10-16T01:58:17.211Z,26.80
2018-10-16T01:58:55.441Z,26.80
2018-10-16T01:59:33.797Z,26.80
2018-10-16T02:00:13.333Z,26.80
2018-10-16T02:00:52.065Z,26.80
2018-10-16T02:01:30.788Z,26.80
2018-10-16T02:02:10.401Z,26.80
2018-10-16T02:02:48.698Z,26.80
2018-10-16T02:03:26.955Z,26.80
2018-10-16T02:04:06.440Z,26.80
2018-10-16T02:04:44.939Z,26.80
2018-10-16T02:05:23.563Z,26.80
2018-10-16T02:06:02.192Z,26.80
2018-10-16T02:06:40.786Z,26.90
2018-10-16T02:07:19.336Z,26.90
2018-10-16T02:07:57.539Z,26.90
2018-10-16T02:08:35.685Z,26.90
2018-10-16T02:09:14.780Z,26.90
2018-10-16T02:09:52.745Z,26.90
2018-10-16T02:10:30.711Z,26.90
2018-10-16T02:11:09.220Z,26.90
2018-10-16T02:11:47.335Z,26.90
2018-10-16T02:12:25.443Z,26.90
2018-10-16T02:13:04.400Z,26.90
2018-10-16T02:13:42.699Z,27.00
2018-10-16T02:14:22.178Z,27.00
2018-10-16T02:15:00.677Z,27.00
2018-10-16T02:15:38.847Z,27.00
2018-10-16T02:16:17.905Z,27.00
2018-10-16T02:16:56.295Z,27.00
2018-10-16T02:17:35.510Z,27.00
2018-10-16T02:18:14.164Z,27.10
2018-10-16T02:18:52.749Z,27.10
2018-10-16T02:19:31.203Z,27.10
2018-10-16T02:20:09.836Z,27.10
2018-10-16T02:20:48.324Z,27.20
2018-10-16T02:21:27.361Z,27.20
2018-10-16T02:22:05.542Z,27.20
2018-10-16T02:22:43.803Z,27.20
2018-10-16T02:23:22.237Z,27.20
2018-10-16T02:24:01.521Z,27.20
2018-10-16T02:24:39.632Z,27.20
2018-10-16T02:25:17.848Z,27.20
2018-10-16T02:25:56.580Z,27.20
2018-10-16T02:26:35.213Z,27.20
2018-10-16T02:27:13.600Z,27.20
2018-10-16T02:27:53.571Z,27.20
2018-10-16T02:28:31.943Z,27.20
2018-10-16T02:29:11.028Z,27.20
2018-10-16T02:29:49.578Z,27.20
2018-10-16T02:30:27.493Z,27.30
2018-10-16T02:31:06.813Z,27.30
2018-10-16T02:31:46.352Z,27.30
2018-10-16T02:32:25.033Z,27.30
2018-10-16T02:33:03.455Z,27.30
2018-10-16T02:33:41.856Z,27.30
2018-10-16T02:34:20.448Z,27.30
2018-10-16T02:35:00.900Z,27.30
2018-10-16T02:35:39.998Z,27.30
2018-10-16T02:36:18.096Z,27.40
2018-10-16T02:36:57.198Z,27.40
2018-10-16T02:37:35.619Z,27.40
2018-10-16T02:38:14.298Z,27.40
2018-10-16T02:38:53.929Z,27.40
2018-10-16T02:39:32.304Z,27.40
2018-10-16T02:40:11.770Z,27.40
2018-10-16T02:40:51.016Z,27.40
2018-10-16T02:41:29.564Z,27.40
2018-10-16T02:42:08.524Z,27.40
2018-10-16T02:42:47.583Z,27.40
2018-10-16T02:43:25.709Z,27.40
2018-10-16T02:44:04.686Z,27.40
2018-10-16T02:44:43.889Z,27.40
2018-10-16T02:45:24.068Z,27.40
2018-10-16T02:46:02.921Z,27.40
2018-10-16T02:46:41.208Z,27.40
2018-10-16T02:47:22.711Z,27.50
2018-10-16T02:48:02.156Z,27.50
2018-10-16T02:48:41.638Z,27.50
2018-10-16T02:49:19.936Z,27.50
2018-10-16T02:49:58.014Z,27.50
2018-10-16T02:50:36.384Z,27.50
2018-10-16T02:51:15.074Z,27.50
2018-10-16T02:51:53.498Z,27.60
2018-10-16T02:52:31.749Z,27.60
2018-10-16T02:53:10.500Z,27.60
2018-10-16T02:53:50.075Z,27.60
2018-10-16T02:54:29.035Z,27.60
2018-10-16T02:55:08.756Z,27.60
2018-10-16T02:55:48.425Z,27.70
2018-10-16T02:56:27.116Z,27.70
2018-10-16T02:57:05.536Z,27.70
2018-10-16T02:57:43.425Z,27.70
2018-10-16T02:58:21.972Z,27.60
2018-10-16T02:59:00.235Z,27.60
2018-10-16T02:59:38.522Z,27.60
2018-10-16T03:00:16.401Z,27.70
2018-10-16T03:00:56.337Z,27.80
2018-10-16T03:01:34.457Z,27.80
2018-10-16T03:02:12.731Z,27.80
2018-10-16T03:02:52.042Z,27.80
2018-10-16T03:03:35.268Z,27.80
2018-10-16T03:04:13.838Z,27.80
2018-10-16T03:04:52.951Z,27.80
2018-10-16T03:05:31.509Z,27.70
2018-10-16T03:06:10.852Z,27.70
2018-10-16T03:06:50.551Z,27.80
2018-10-16T03:07:30.309Z,27.80
2018-10-16T03:08:09.128Z,27.80
2018-10-16T03:08:47.276Z,27.80
2018-10-16T03:09:25.575Z,27.80
2018-10-16T03:10:04.221Z,27.80
2018-10-16T03:10:42.598Z,27.80
2018-10-16T03:11:22.397Z,27.80
2018-10-16T03:12:01.278Z,27.80
2018-10-16T03:12:39.323Z,27.90
2018-10-16T03:13:17.823Z,27.90
2018-10-16T03:13:56.208Z,27.90
2018-10-16T03:14:34.389Z,27.90
2018-10-16T03:15:15.084Z,27.90
2018-10-16T03:15:53.258Z,28.00
2018-10-16T03:16:31.737Z,28.00
2018-10-16T03:17:09.812Z,28.00
2018-10-16T03:17:49.516Z,28.00
2018-10-16T03:18:27.437Z,28.00
2018-10-16T03:19:05.328Z,28.00
2018-10-16T03:19:43.473Z,28.00
2018-10-16T03:20:21.691Z,28.00
2018-10-16T03:21:00.354Z,28.00
2018-10-16T03:21:38.283Z,28.00
2018-10-16T03:22:16.207Z,28.00
2018-10-16T03:22:54.638Z,28.00
2018-10-16T03:23:33.750Z,28.00
2018-10-16T03:24:12.044Z,28.00
2018-10-16T03:24:51.519Z,28.00
2018-10-16T03:25:30.031Z,28.00
2018-10-16T03:26:08.468Z,28.00
2018-10-16T03:26:47.052Z,28.10
2018-10-16T03:27:25.054Z,28.10
2018-10-16T03:28:02.941Z,28.20
2018-10-16T03:28:41.982Z,28.10
2018-10-16T03:29:20.023Z,28.20
2018-10-16T03:29:57.872Z,28.20
2018-10-16T03:30:37.859Z,28.20
2018-10-16T03:31:15.848Z,28.20
2018-10-16T03:31:54.817Z,28.20
2018-10-16T03:32:33.563Z,28.20
2018-10-16T03:33:11.547Z,28.20
2018-10-16T03:33:49.728Z,28.20
2018-10-16T03:34:27.639Z,28.20
2018-10-16T03:35:05.565Z,28.20
2018-10-16T03:35:43.817Z,28.20
2018-10-16T03:36:22.639Z,28.20
2018-10-16T03:37:01.294Z,28.10
2018-10-16T03:37:40.428Z,28.20
2018-10-16T03:38:19.488Z,28.10
2018-10-16T03:38:57.486Z,28.20
2018-10-16T03:39:35.459Z,28.10
2018-10-16T03:40:14.249Z,28.10
2018-10-16T03:40:53.024Z,28.20
2018-10-16T03:41:30.886Z,28.20
2018-10-16T03:42:08.804Z,28.30
2018-10-16T03:42:46.676Z,28.30
2018-10-16T03:43:24.581Z,28.30
2018-10-16T03:44:04.292Z,28.30
2018-10-16T03:44:42.270Z,28.30
2018-10-16T03:45:20.144Z,28.30
2018-10-16T03:45:58.084Z,28.30
2018-10-16T03:46:36.396Z,28.30
2018-10-16T03:47:14.570Z,28.30
2018-10-16T03:47:53.737Z,28.30
2018-10-16T03:48:32.333Z,28.30
2018-10-16T03:49:13.208Z,28.30
2018-10-16T03:49:51.427Z,28.20
2018-10-16T03:50:30.044Z,28.30
2018-10-16T03:51:08.543Z,28.20
2018-10-16T03:51:46.526Z,28.20
2018-10-16T03:52:24.916Z,28.30
2018-10-16T03:53:03.285Z,28.30
2018-10-16T03:53:41.582Z,28.30
2018-10-16T03:54:20.156Z,28.30
2018-10-16T03:54:59.012Z,28.30
2018-10-16T03:55:37.744Z,28.30
2018-10-16T03:56:15.812Z,28.30
2018-10-16T03:56:54.573Z,28.30
2018-10-16T03:57:32.958Z,28.30
2018-10-16T03:58:11.451Z,28.30
2018-10-16T03:58:49.545Z,28.30
2018-10-16T03:59:27.558Z,28.30
2018-10-16T04:00:05.779Z,28.30
2018-10-16T04:00:44.057Z,28.30
2018-10-16T04:01:23.032Z,28.30
2018-10-16T04:02:01.624Z,28.30
2018-10-16T04:02:40.169Z,28.30
2018-10-16T04:03:18.512Z,28.30
2018-10-16T04:03:56.824Z,28.30
2018-10-16T04:04:35.543Z,28.40
2018-10-16T04:05:13.960Z,28.40
2018-10-16T04:05:52.264Z,28.40
2018-10-16T04:06:31.622Z,28.40
2018-10-16T04:07:10.265Z,28.40
2018-10-16T04:07:48.607Z,28.30
2018-10-16T04:08:27.817Z,28.40
2018-10-16T04:09:07.024Z,28.40
2018-10-16T04:09:46.924Z,28.40
2018-10-16T04:10:25.589Z,28.40
2018-10-16T04:11:03.878Z,28.40
2018-10-16T04:11:43.600Z,28.40
2018-10-16T04:12:21.544Z,28.40
2018-10-16T04:12:59.884Z,28.40
2018-10-16T04:13:38.095Z,28.40
2018-10-16T04:14:16.548Z,28.40
2018-10-16T04:14:54.879Z,28.40
2018-10-16T04:15:33.437Z,28.40
2018-10-16T04:16:11.904Z,28.40
2018-10-16T04:16:50.154Z,28.50
2018-10-16T04:17:29.336Z,28.50
2018-10-16T04:18:07.728Z,28.50
2018-10-16T04:18:47.619Z,28.50
2018-10-16T04:19:26.078Z,28.50
2018-10-16T04:20:04.548Z,28.50
2018-10-16T04:20:43.044Z,28.50
2018-10-16T04:21:21.348Z,28.50
2018-10-16T04:21:59.451Z,28.50
2018-10-16T04:22:37.922Z,28.50
2018-10-16T04:23:16.403Z,28.50
2018-10-16T04:23:55.149Z,28.50
2018-10-16T04:24:34.360Z,28.50
2018-10-16T04:25:12.768Z,28.50
2018-10-16T04:25:50.951Z,28.50
2018-10-16T04:26:29.068Z,28.50
2018-10-16T04:27:07.626Z,28.50
2018-10-16T04:27:46.568Z,28.50
2018-10-16T04:28:26.479Z,28.50
2018-10-16T04:29:04.834Z,28.50
2018-10-16T04:29:43.073Z,28.50
2018-10-16T04:30:21.323Z,28.60
2018-10-16T04:30:59.651Z,28.60
2018-10-16T04:31:37.980Z,28.60
2018-10-16T04:32:15.873Z,28.60
2018-10-16T04:32:54.503Z,28.60
2018-10-16T04:33:32.844Z,28.50
2018-10-16T04:34:12.228Z,28.50
2018-10-16T04:34:50.840Z,28.50
2018-10-16T04:35:29.336Z,28.50
2018-10-16T04:36:07.915Z,28.60
2018-10-16T04:36:46.959Z,28.60
2018-10-16T04:37:25.332Z,28.60
2018-10-16T04:38:04.886Z,28.60
2018-10-16T04:38:44.861Z,28.60
2018-10-16T04:39:24.269Z,28.60
2018-10-16T04:40:02.664Z,28.50
2018-10-16T04:40:40.897Z,28.60
2018-10-16T04:41:20.959Z,28.60
2018-10-16T04:42:00.232Z,28.50
2018-10-16T04:42:40.085Z,28.50
2018-10-16T04:43:19.338Z,28.50
2018-10-16T04:43:58.209Z,28.50
2018-10-16T04:44:36.634Z,28.50
2018-10-16T04:45:15.300Z,28.50
2018-10-16T04:45:53.860Z,28.50
2018-10-16T04:46:32.616Z,28.50
2018-10-16T04:47:10.562Z,28.50
2018-10-16T04:47:48.923Z,28.50
2018-10-16T04:48:27.308Z,28.50
2018-10-16T04:49:05.816Z,28.50
2018-10-16T04:49:44.216Z,28.50
2018-10-16T04:50:23.776Z,28.50
2018-10-16T04:51:02.187Z,28.40
2018-10-16T04:51:41.344Z,28.40
2018-10-16T04:52:19.840Z,28.40
2018-10-16T04:52:58.367Z,28.40
2018-10-16T04:53:36.833Z,28.40
2018-10-16T04:54:15.213Z,28.40
2018-10-16T04:54:53.571Z,28.40
2018-10-16T04:55:31.956Z,28.40
2018-10-16T04:56:10.392Z,28.40
2018-10-16T04:56:48.828Z,28.40
2018-10-16T04:57:27.087Z,28.40
2018-10-16T04:58:05.656Z,28.40
2018-10-16T04:58:43.990Z,28.40
2018-10-16T04:59:22.501Z,28.40
2018-10-16T05:00:00.805Z,28.40
2018-10-16T05:00:39.103Z,28.40
2018-10-16T05:01:17.828Z,28.40
2018-10-16T05:01:56.297Z,28.40
2018-10-16T05:02:36.499Z,28.40
2018-10-16T05:03:14.796Z,28.40
2018-10-16T05:03:52.878Z,28.40
2018-10-16T05:04:31.065Z,28.40
2018-10-16T05:05:11.385Z,28.40
2018-10-16T05:05:49.378Z,28.40
2018-10-16T05:06:27.511Z,28.40
2018-10-16T05:07:05.668Z,28.40
2018-10-16T05:07:43.997Z,28.40
2018-10-16T05:08:22.585Z,28.40
2018-10-16T05:09:01.205Z,28.40
2018-10-16T05:09:40.416Z,28.40
2018-10-16T05:10:18.495Z,28.50
2018-10-16T05:10:57.040Z,28.50
2018-10-16T05:11:36.137Z,28.50
2018-10-16T05:12:16.446Z,28.50
2018-10-16T05:12:54.845Z,28.50
2018-10-16T05:13:32.942Z,28.60
2018-10-16T05:14:12.475Z,28.50
2018-10-16T05:14:50.944Z,28.50
2018-10-16T05:15:30.450Z,28.50
2018-10-16T05:16:09.044Z,28.50
2018-10-16T05:16:47.416Z,28.50
2018-10-16T05:17:25.679Z,28.60
2018-10-16T05:18:03.835Z,28.60
2018-10-16T05:18:42.579Z,28.60
2018-10-16T05:19:20.400Z,28.70
2018-10-16T05:20:00.180Z,28.70
2018-10-16T05:20:38.581Z,28.70
2018-10-16T05:21:16.500Z,28.80
2018-10-16T05:21:55.169Z,28.80
2018-10-16T05:22:33.354Z,28.80
2018-10-16T05:23:11.296Z,28.80
2018-10-16T05:23:50.268Z,28.80
2018-10-16T05:24:29.668Z,28.70
2018-10-16T05:25:07.852Z,28.70
2018-10-16T05:25:45.768Z,28.70
2018-10-16T05:26:23.690Z,28.70
2018-10-16T05:27:02.221Z,28.70
2018-10-16T05:27:40.168Z,28.70
2018-10-16T05:28:18.206Z,28.70
2018-10-16T05:28:57.064Z,28.70
2018-10-16T05:29:36.956Z,28.70
2018-10-16T05:30:14.944Z,28.70
2018-10-16T05:30:52.951Z,28.70
2018-10-16T05:31:31.036Z,28.70
2018-10-16T05:32:10.016Z,28.70
2018-10-16T05:32:47.913Z,28.70
2018-10-16T05:33:26.116Z,28.70
2018-10-16T05:34:04.155Z,28.70
2018-10-16T05:34:42.098Z,28.60
2018-10-16T05:35:19.925Z,28.60
2018-10-16T05:35:58.213Z,28.60
2018-10-16T05:36:36.307Z,28.60
2018-10-16T05:37:14.224Z,28.60
2018-10-16T05:37:52.132Z,28.60
2018-10-16T05:38:30.039Z,28.70
2018-10-16T05:39:10.159Z,28.70
2018-10-16T05:39:48.070Z,28.70
2018-10-16T05:40:27.996Z,28.80
2018-10-16T05:41:06.834Z,28.70
2018-10-16T05:41:44.679Z,28.70
2018-10-16T05:42:24.324Z,28.70
2018-10-16T05:43:02.756Z,28.70
2018-10-16T05:43:41.106Z,28.70
2018-10-16T05:44:19.056Z,28.80
2018-10-16T05:44:56.977Z,28.80
2018-10-16T05:45:38.063Z,28.80
2018-10-16T05:46:16.584Z,28.80
2018-10-16T05:46:55.081Z,28.80
2018-10-16T05:47:33.243Z,28.80
2018-10-16T05:48:12.392Z,28.80
2018-10-16T05:48:50.817Z,28.80
2018-10-16T05:49:29.291Z,28.80
2018-10-16T05:50:08.421Z,28.80
2018-10-16T05:50:49.563Z,28.80
2018-10-16T05:51:28.941Z,28.90
2018-10-16T05:52:07.225Z,28.90
2018-10-16T05:52:45.607Z,28.90
2018-10-16T05:53:24.010Z,28.90
2018-10-16T05:54:02.422Z,28.90
2018-10-16T05:54:40.830Z,28.90
2018-10-16T05:55:19.264Z,28.90
2018-10-16T05:56:04.721Z,28.90
2018-10-16T05:56:44.076Z,28.90
2018-10-16T05:57:22.576Z,28.90
2018-10-16T05:58:00.954Z,28.90
2018-10-16T05:58:39.380Z,28.90
2018-10-16T05:59:17.903Z,28.90
2018-10-16T06:00:03.571Z,29.00
2018-10-16T06:00:48.392Z,29.00
2018-10-16T06:01:27.146Z,29.00
2018-10-16T06:02:05.065Z,29.00
2018-10-16T06:02:42.999Z,29.00
2018-10-16T06:03:21.562Z,29.00
2018-10-16T06:04:00.967Z,29.00
2018-10-16T06:04:39.633Z,29.00
2018-10-16T06:05:18.126Z,29.10
2018-10-16T06:05:56.372Z,29.00
2018-10-16T06:06:34.609Z,29.10
2018-10-16T06:07:13.410Z,29.10
2018-10-16T06:07:51.689Z,29.00
2018-10-16T06:08:30.195Z,29.00
2018-10-16T06:09:09.829Z,29.00
2018-10-16T06:09:48.413Z,29.10
2018-10-16T06:10:27.968Z,29.00
2018-10-16T06:11:06.353Z,29.10
2018-10-16T06:11:46.151Z,29.10
2018-10-16T06:12:24.463Z,29.10
2018-10-16T06:13:02.547Z,29.10
2018-10-16T06:13:40.605Z,29.10
2018-10-16T06:14:18.895Z,29.10
2018-10-16T06:14:57.015Z,29.10
2018-10-16T06:15:35.210Z,29.00
2018-10-16T06:16:13.482Z,29.00
2018-10-16T06:16:51.705Z,29.00
2018-10-16T06:17:30.116Z,29.00
2018-10-16T06:18:08.453Z,29.00
2018-10-16T06:18:46.487Z,29.00
2018-10-16T06:19:26.033Z,29.00
2018-10-16T06:20:04.469Z,29.00
2018-10-16T06:20:42.933Z,29.00
2018-10-16T06:21:22.108Z,29.00
2018-10-16T06:22:01.646Z,29.00
2018-10-16T06:22:40.108Z,29.00
2018-10-16T06:23:18.570Z,29.00
2018-10-16T06:23:57.124Z,29.00
2018-10-16T06:24:35.502Z,29.10
2018-10-16T06:25:14.122Z,29.10
2018-10-16T06:25:52.427Z,29.10
2018-10-16T06:26:30.601Z,29.10
2018-10-16T06:27:08.675Z,29.10
2018-10-16T06:27:47.522Z,29.10
2018-10-16T06:28:27.655Z,29.10
2018-10-16T06:29:05.971Z,29.10
2018-10-16T06:29:44.197Z,29.10
2018-10-16T06:30:22.693Z,29.10
2018-10-16T06:31:00.837Z,29.20
2018-10-16T06:31:39.395Z,29.20
2018-10-16T06:32:17.794Z,29.20
2018-10-16T06:32:56.145Z,29.20
2018-10-16T06:33:34.953Z,29.20
2018-10-16T06:34:13.257Z,29.30
2018-10-16T06:34:51.460Z,29.30
2018-10-16T06:35:29.761Z,29.30
2018-10-16T06:36:08.352Z,29.30
2018-10-16T06:36:46.919Z,29.30
2018-10-16T06:37:25.175Z,29.30
2018-10-16T06:38:03.368Z,29.30
2018-10-16T06:38:41.552Z,29.30
2018-10-16T06:39:20.136Z,29.30
2018-10-16T06:39:58.648Z,29.30
2018-10-16T06:40:37.120Z,29.30
2018-10-16T06:41:15.562Z,29.30
2018-10-16T06:41:54.204Z,29.30
2018-10-16T06:42:32.752Z,29.30
2018-10-16T06:43:12.080Z,29.30
2018-10-16T06:43:50.535Z,29.20
2018-10-16T06:44:28.601Z,29.20
2018-10-16T06:45:07.336Z,29.20
2018-10-16T06:45:45.625Z,29.20
2018-10-16T06:46:23.730Z,29.20
2018-10-16T06:47:02.308Z,29.20
2018-10-16T06:47:41.763Z,29.20
2018-10-16T06:48:21.083Z,29.20
2018-10-16T06:48:59.591Z,29.20
2018-10-16T06:49:38.018Z,29.20
2018-10-16T06:50:15.937Z,29.20
2018-10-16T06:50:54.380Z,29.20
2018-10-16T06:51:32.626Z,29.20
2018-10-16T06:52:10.746Z,29.20
2018-10-16T06:52:49.401Z,29.20
2018-10-16T06:53:27.508Z,29.20
2018-10-16T06:54:06.089Z,29.20
2018-10-16T06:54:44.556Z,29.20
2018-10-16T06:55:24.728Z,29.20
2018-10-16T06:56:03.303Z,29.20
2018-10-16T06:56:41.491Z,29.20
2018-10-16T06:57:21.051Z,29.20
2018-10-16T06:57:59.266Z,29.20
2018-10-16T06:58:37.603Z,29.30
2018-10-16T06:59:15.885Z,29.30
2018-10-16T06:59:55.572Z,29.30
2018-10-16T07:00:33.980Z,29.20
2018-10-16T07:01:12.247Z,29.20
2018-10-16T07:01:51.938Z,29.20
2018-10-16T07:02:30.244Z,29.20
2018-10-16T07:03:09.243Z,29.20
2018-10-16T07:03:47.580Z,29.20
2018-10-16T07:04:26.999Z,29.20
2018-10-16T07:05:05.486Z,29.20
2018-10-16T07:05:44.145Z,29.20
2018-10-16T07:06:23.293Z,29.20
2018-10-16T07:07:01.726Z,29.20
2018-10-16T07:07:41.651Z,29.20
2018-10-16T07:08:21.112Z,29.20
2018-10-16T07:08:59.581Z,29.20
2018-10-16T07:09:37.920Z,29.20
2018-10-16T07:10:17.935Z,29.20
2018-10-16T07:10:56.390Z,29.20
2018-10-16T07:11:38.229Z,29.20
2018-10-16T07:12:16.057Z,29.20
2018-10-16T07:12:54.788Z,29.20
2018-10-16T07:13:33.394Z,29.20
2018-10-16T07:14:14.101Z,29.20
2018-10-16T07:14:52.683Z,29.20
2018-10-16T07:15:31.295Z,29.20
2018-10-16T07:16:10.265Z,29.20
2018-10-16T07:16:51.273Z,29.20
2018-10-16T07:17:29.230Z,29.20
2018-10-16T07:18:08.389Z,29.20
2018-10-16T07:18:46.353Z,29.20
2018-10-16T07:19:25.493Z,29.20
2018-10-16T07:20:03.371Z,29.20
2018-10-16T07:20:41.744Z,29.20
2018-10-16T07:21:19.655Z,29.30
2018-10-16T07:21:58.701Z,29.30
2018-10-16T07:22:36.646Z,29.30
2018-10-16T07:23:14.581Z,29.30
2018-10-16T07:23:53.156Z,29.30
2018-10-16T07:24:31.114Z,29.30
2018-10-16T07:25:12.304Z,29.30
2018-10-16T07:25:51.746Z,29.30
2018-10-16T07:26:31.284Z,29.30
2018-10-16T07:27:11.115Z,29.30
2018-10-16T07:27:49.041Z,29.30
2018-10-16T07:28:27.243Z,29.30
2018-10-16T07:29:06.740Z,29.30
2018-10-16T07:29:44.651Z,29.40
2018-10-16T07:30:22.604Z,29.40
2018-10-16T07:31:00.611Z,29.40
2018-10-16T07:31:39.164Z,29.40
2018-10-16T07:32:17.080Z,29.40
2018-10-16T07:32:54.965Z,29.40
2018-10-16T07:33:32.990Z,29.40
2018-10-16T07:34:12.184Z,29.40
2018-10-16T07:34:50.112Z,29.40
2018-10-16T07:35:29.436Z,29.40
2018-10-16T07:36:08.301Z,29.40
2018-10-16T07:36:46.848Z,29.40
2018-10-16T07:37:26.417Z,29.40
2018-10-16T07:38:04.834Z,29.40
2018-10-16T07:38:43.149Z,29.40
2018-10-16T07:39:21.799Z,29.40
2018-10-16T07:40:00.160Z,29.40
2018-10-16T07:40:41.964Z,29.40
2018-10-16T07:41:21.357Z,29.30
2018-10-16T07:41:59.327Z,29.40
2018-10-16T07:42:37.224Z,29.30
2018-10-16T07:43:15.144Z,29.30
2018-10-16T07:43:53.719Z,29.30
2018-10-16T07:44:33.967Z,29.30
2018-10-16T07:45:12.723Z,29.30
2018-10-16T07:45:50.581Z,29.30
2018-10-16T07:46:28.847Z,29.30
2018-10-16T07:47:06.910Z,29.30
2018-10-16T07:47:45.289Z,29.30
2018-10-16T07:48:23.451Z,29.30
2018-10-16T07:49:02.029Z,29.30
2018-10-16T07:49:40.286Z,29.30
2018-10-16T07:50:18.629Z,29.30
2018-10-16T07:50:57.671Z,29.30
2018-10-16T07:51:36.013Z,29.30
2018-10-16T07:52:15.885Z,29.30
2018-10-16T07:52:54.424Z,29.40
2018-10-16T07:53:32.961Z,29.40
2018-10-16T07:54:11.532Z,29.40
2018-10-16T07:54:49.636Z,29.30
2018-10-16T07:55:29.017Z,29.30
2018-10-16T07:56:08.124Z,29.30
2018-10-16T07:56:46.477Z,29.30
2018-10-16T07:57:24.746Z,29.30
2018-10-16T07:58:03.163Z,29.30
2018-10-16T07:58:41.487Z,29.40
2018-10-16T07:59:20.063Z,29.40
2018-10-16T07:59:58.460Z,29.40
2018-10-16T08:00:36.563Z,29.40
2018-10-16T08:01:14.554Z,29.40
2018-10-16T08:01:53.000Z,29.40
2018-10-16T08:02:31.554Z,29.40
2018-10-16T08:03:10.135Z,29.40
2018-10-16T08:03:48.568Z,29.30
2018-10-16T08:04:27.492Z,29.30
2018-10-16T08:05:05.779Z,29.30
2018-10-16T08:05:44.036Z,29.30
2018-10-16T08:06:22.325Z,29.30
2018-10-16T08:07:01.475Z,29.30
2018-10-16T08:07:40.136Z,29.40
2018-10-16T08:08:18.620Z,29.40
2018-10-16T08:08:57.061Z,29.30
2018-10-16T08:09:35.638Z,29.40
2018-10-16T08:10:15.648Z,29.40
2018-10-16T08:10:53.989Z,29.30
2018-10-16T08:11:32.902Z,29.40
2018-10-16T08:12:12.041Z,29.40
2018-10-16T08:12:50.214Z,29.40
2018-10-16T08:13:28.548Z,29.40
2018-10-16T08:14:06.892Z,29.40
2018-10-16T08:14:45.164Z,29.40
2018-10-16T08:15:23.678Z,29.40
2018-10-16T08:16:02.123Z,29.40
2018-10-16T08:16:40.562Z,29.40
2018-10-16T08:17:18.666Z,29.40
2018-10-16T08:17:56.889Z,29.40
2018-10-16T08:18:35.396Z,29.40